sensor_id;sensor_type;location;lat;lon;timestamp;P1;durP1;ratioP1;P2;durP2;ratioP2
31424;SDS011;18054;51.572;7.372;2024-02-26T00:00:35;10.25;;;2.80;;
31424;SDS011;18054;51.572;7.372;2024-02-26T00:03:07;5.70;;;2.80;;
31424;SDS011;18054;51.572;7.372;2024-02-26T00:05:35;6.32;;;2.88;;
31424;SDS011;18054;51.572;7.372;2024-02-26T00:08:04;6.10;;;2.63;;
31424;SDS011;18054;51.572;7.372;2024-02-26T00:12:59;5.32;;;2.20;;
31424;SDS011;18054;51.572;7.372;2024-02-26T00:15:27;4.53;;;2.15;;
31424;SDS011;18054;51.572;7.372;2024-02-26T00:20:23;7.97;;;2.78;;
31424;SDS011;18054;51.572;7.372;2024-02-26T00:22:51;4.07;;;2.03;;
31424;SDS011;18054;51.572;7.372;2024-02-26T00:25:19;6.45;;;2.00;;
31424;SDS011;18054;51.572;7.372;2024-02-26T00:27:47;6.43;;;2.65;;
31424;SDS011;18054;51.572;7.372;2024-02-26T00:30:14;4.50;;;2.30;;
31424;SDS011;18054;51.572;7.372;2024-02-26T00:32:42;6.63;;;2.60;;
31424;SDS011;18054;51.572;7.372;2024-02-26T00:35:09;6.97;;;3.08;;
31424;SDS011;18054;51.572;7.372;2024-02-26T00:37:38;9.02;;;2.58;;
31424;SDS011;18054;51.572;7.372;2024-02-26T00:40:06;4.97;;;2.50;;
31424;SDS011;18054;51.572;7.372;2024-02-26T00:42:35;6.32;;;2.05;;
31424;SDS011;18054;51.572;7.372;2024-02-26T00:45:02;5.97;;;2.25;;
31424;SDS011;18054;51.572;7.372;2024-02-26T00:47:30;4.43;;;2.03;;
31424;SDS011;18054;51.572;7.372;2024-02-26T00:49:57;6.38;;;2.63;;
31424;SDS011;18054;51.572;7.372;2024-02-26T00:52:25;5.13;;;2.30;;
31424;SDS011;18054;51.572;7.372;2024-02-26T00:54:53;6.70;;;2.60;;
31424;SDS011;18054;51.572;7.372;2024-02-26T00:57:21;3.85;;;2.22;;
31424;SDS011;18054;51.572;7.372;2024-02-26T01:02:34;4.22;;;2.10;;
31424;SDS011;18054;51.572;7.372;2024-02-26T01:05:02;3.08;;;1.80;;
31424;SDS011;18054;51.572;7.372;2024-02-26T01:07:41;7.00;;;2.30;;
31424;SDS011;18054;51.572;7.372;2024-02-26T01:10:09;5.00;;;2.15;;
31424;SDS011;18054;51.572;7.372;2024-02-26T01:12:36;6.00;;;2.38;;
31424;SDS011;18054;51.572;7.372;2024-02-26T01:17:32;6.97;;;2.85;;
31424;SDS011;18054;51.572;7.372;2024-02-26T01:20:01;5.18;;;2.28;;
31424;SDS011;18054;51.572;7.372;2024-02-26T01:22:29;10.15;;;2.38;;
31424;SDS011;18054;51.572;7.372;2024-02-26T01:24:56;6.28;;;2.13;;
31424;SDS011;18054;51.572;7.372;2024-02-26T01:27:24;8.63;;;2.30;;
31424;SDS011;18054;51.572;7.372;2024-02-26T01:29:53;4.72;;;2.20;;
31424;SDS011;18054;51.572;7.372;2024-02-26T01:32:21;4.75;;;2.28;;
31424;SDS011;18054;51.572;7.372;2024-02-26T01:34:48;5.40;;;2.17;;
31424;SDS011;18054;51.572;7.372;2024-02-26T01:37:17;4.40;;;1.98;;
31424;SDS011;18054;51.572;7.372;2024-02-26T01:39:45;4.80;;;2.05;;
31424;SDS011;18054;51.572;7.372;2024-02-26T01:42:12;3.70;;;2.20;;
31424;SDS011;18054;51.572;7.372;2024-02-26T01:44:40;3.90;;;2.05;;
31424;SDS011;18054;51.572;7.372;2024-02-26T01:47:10;4.47;;;2.28;;
31424;SDS011;18054;51.572;7.372;2024-02-26T01:49:38;6.50;;;2.45;;
31424;SDS011;18054;51.572;7.372;2024-02-26T01:52:07;5.53;;;2.30;;
31424;SDS011;18054;51.572;7.372;2024-02-26T01:54:37;3.88;;;2.08;;
31424;SDS011;18054;51.572;7.372;2024-02-26T01:57:05;4.20;;;2.00;;
31424;SDS011;18054;51.572;7.372;2024-02-26T02:02:01;4.45;;;1.73;;
31424;SDS011;18054;51.572;7.372;2024-02-26T02:04:28;5.50;;;2.45;;
31424;SDS011;18054;51.572;7.372;2024-02-26T02:09:24;6.70;;;2.08;;
31424;SDS011;18054;51.572;7.372;2024-02-26T02:11:53;4.82;;;1.95;;
31424;SDS011;18054;51.572;7.372;2024-02-26T02:14:20;4.30;;;1.98;;
31424;SDS011;18054;51.572;7.372;2024-02-26T02:16:48;3.75;;;1.90;;
31424;SDS011;18054;51.572;7.372;2024-02-26T02:19:15;4.55;;;1.92;;
31424;SDS011;18054;51.572;7.372;2024-02-26T02:21:44;4.47;;;2.08;;
31424;SDS011;18054;51.572;7.372;2024-02-26T02:24:12;3.75;;;2.05;;
31424;SDS011;18054;51.572;7.372;2024-02-26T02:26:39;15.25;;;3.10;;
31424;SDS011;18054;51.572;7.372;2024-02-26T02:29:07;4.13;;;2.00;;
31424;SDS011;18054;51.572;7.372;2024-02-26T02:31:35;5.72;;;2.22;;
31424;SDS011;18054;51.572;7.372;2024-02-26T02:34:03;8.40;;;2.47;;
31424;SDS011;18054;51.572;7.372;2024-02-26T02:36:31;3.45;;;2.00;;
31424;SDS011;18054;51.572;7.372;2024-02-26T02:38:59;5.30;;;2.20;;
31424;SDS011;18054;51.572;7.372;2024-02-26T02:41:27;8.48;;;1.80;;
31424;SDS011;18054;51.572;7.372;2024-02-26T02:43:56;3.95;;;1.80;;
31424;SDS011;18054;51.572;7.372;2024-02-26T02:46:24;3.88;;;1.73;;
31424;SDS011;18054;51.572;7.372;2024-02-26T02:48:51;13.40;;;2.00;;
31424;SDS011;18054;51.572;7.372;2024-02-26T02:51:19;4.10;;;1.83;;
31424;SDS011;18054;51.572;7.372;2024-02-26T02:53:46;5.85;;;1.80;;
31424;SDS011;18054;51.572;7.372;2024-02-26T02:56:15;3.63;;;1.85;;
31424;SDS011;18054;51.572;7.372;2024-02-26T02:58:43;7.38;;;1.33;;
31424;SDS011;18054;51.572;7.372;2024-02-26T03:01:10;3.70;;;1.73;;
31424;SDS011;18054;51.572;7.372;2024-02-26T03:03:40;3.10;;;1.52;;
31424;SDS011;18054;51.572;7.372;2024-02-26T03:06:07;4.13;;;1.88;;
31424;SDS011;18054;51.572;7.372;2024-02-26T03:08:35;6.18;;;1.83;;
31424;SDS011;18054;51.572;7.372;2024-02-26T03:11:04;3.97;;;1.50;;
31424;SDS011;18054;51.572;7.372;2024-02-26T03:13:33;5.75;;;1.83;;
31424;SDS011;18054;51.572;7.372;2024-02-26T03:16:03;4.82;;;1.92;;
31424;SDS011;18054;51.572;7.372;2024-02-26T03:18:31;4.75;;;1.77;;
31424;SDS011;18054;51.572;7.372;2024-02-26T03:21:02;5.07;;;2.03;;
31424;SDS011;18054;51.572;7.372;2024-02-26T03:23:30;2.90;;;1.58;;
31424;SDS011;18054;51.572;7.372;2024-02-26T03:25:58;5.93;;;2.60;;
31424;SDS011;18054;51.572;7.372;2024-02-26T03:28:26;5.55;;;2.00;;
31424;SDS011;18054;51.572;7.372;2024-02-26T03:30:54;10.80;;;2.03;;
31424;SDS011;18054;51.572;7.372;2024-02-26T03:33:22;6.00;;;1.52;;
31424;SDS011;18054;51.572;7.372;2024-02-26T03:35:50;10.07;;;1.77;;
31424;SDS011;18054;51.572;7.372;2024-02-26T03:38:17;3.92;;;1.92;;
31424;SDS011;18054;51.572;7.372;2024-02-26T03:40:45;3.72;;;1.95;;
31424;SDS011;18054;51.572;7.372;2024-02-26T03:43:12;6.13;;;1.80;;
31424;SDS011;18054;51.572;7.372;2024-02-26T03:45:40;4.30;;;1.65;;
31424;SDS011;18054;51.572;7.372;2024-02-26T03:48:09;2.78;;;1.65;;
31424;SDS011;18054;51.572;7.372;2024-02-26T03:50:37;3.28;;;1.50;;
31424;SDS011;18054;51.572;7.372;2024-02-26T03:53:04;3.28;;;1.70;;
31424;SDS011;18054;51.572;7.372;2024-02-26T03:55:32;3.17;;;1.65;;
31424;SDS011;18054;51.572;7.372;2024-02-26T03:57:59;2.45;;;1.30;;
31424;SDS011;18054;51.572;7.372;2024-02-26T04:00:29;6.43;;;1.80;;
31424;SDS011;18054;51.572;7.372;2024-02-26T04:05:26;6.40;;;2.38;;
31424;SDS011;18054;51.572;7.372;2024-02-26T04:07:53;5.88;;;2.83;;
31424;SDS011;18054;51.572;7.372;2024-02-26T04:10:21;5.72;;;1.80;;
31424;SDS011;18054;51.572;7.372;2024-02-26T04:12:48;3.30;;;1.80;;
31424;SDS011;18054;51.572;7.372;2024-02-26T04:15:16;3.53;;;1.80;;
31424;SDS011;18054;51.572;7.372;2024-02-26T04:17:43;5.43;;;1.70;;
31424;SDS011;18054;51.572;7.372;2024-02-26T04:22:40;3.70;;;1.63;;
31424;SDS011;18054;51.572;7.372;2024-02-26T04:25:09;3.30;;;1.83;;
31424;SDS011;18054;51.572;7.372;2024-02-26T04:27:37;4.30;;;1.95;;
31424;SDS011;18054;51.572;7.372;2024-02-26T04:30:05;5.55;;;2.20;;
31424;SDS011;18054;51.572;7.372;2024-02-26T04:32:32;7.82;;;1.85;;
31424;SDS011;18054;51.572;7.372;2024-02-26T04:35:00;2.45;;;1.42;;
31424;SDS011;18054;51.572;7.372;2024-02-26T04:37:28;4.22;;;1.85;;
31424;SDS011;18054;51.572;7.372;2024-02-26T04:39:59;3.65;;;2.00;;
31424;SDS011;18054;51.572;7.372;2024-02-26T04:42:27;4.32;;;2.00;;
31424;SDS011;18054;51.572;7.372;2024-02-26T04:44:55;6.28;;;1.70;;
31424;SDS011;18054;51.572;7.372;2024-02-26T04:47:22;5.07;;;2.28;;
31424;SDS011;18054;51.572;7.372;2024-02-26T04:49:50;6.95;;;2.00;;
31424;SDS011;18054;51.572;7.372;2024-02-26T04:52:18;6.95;;;2.20;;
31424;SDS011;18054;51.572;7.372;2024-02-26T04:54:45;5.35;;;1.80;;
31424;SDS011;18054;51.572;7.372;2024-02-26T04:57:14;5.82;;;2.15;;
31424;SDS011;18054;51.572;7.372;2024-02-26T04:59:44;5.43;;;2.25;;
31424;SDS011;18054;51.572;7.372;2024-02-26T05:02:12;3.90;;;2.03;;
31424;SDS011;18054;51.572;7.372;2024-02-26T05:04:40;11.98;;;2.65;;
31424;SDS011;18054;51.572;7.372;2024-02-26T05:07:08;8.55;;;3.22;;
31424;SDS011;18054;51.572;7.372;2024-02-26T05:09:35;7.63;;;2.67;;
31424;SDS011;18054;51.572;7.372;2024-02-26T05:12:03;7.40;;;2.75;;
31424;SDS011;18054;51.572;7.372;2024-02-26T05:14:32;10.20;;;3.25;;
31424;SDS011;18054;51.572;7.372;2024-02-26T05:17:00;8.85;;;2.38;;
31424;SDS011;18054;51.572;7.372;2024-02-26T05:19:28;9.77;;;2.67;;
31424;SDS011;18054;51.572;7.372;2024-02-26T05:21:55;6.25;;;2.95;;
31424;SDS011;18054;51.572;7.372;2024-02-26T05:24:23;7.47;;;2.30;;
31424;SDS011;18054;51.572;7.372;2024-02-26T05:26:51;7.15;;;2.85;;
31424;SDS011;18054;51.572;7.372;2024-02-26T05:29:18;6.35;;;3.05;;
31424;SDS011;18054;51.572;7.372;2024-02-26T05:34:15;7.13;;;3.05;;
31424;SDS011;18054;51.572;7.372;2024-02-26T05:36:42;5.93;;;2.78;;
31424;SDS011;18054;51.572;7.372;2024-02-26T05:39:10;6.70;;;2.30;;
31424;SDS011;18054;51.572;7.372;2024-02-26T05:41:43;5.72;;;2.63;;
31424;SDS011;18054;51.572;7.372;2024-02-26T05:44:11;4.40;;;2.67;;
31424;SDS011;18054;51.572;7.372;2024-02-26T05:46:38;6.63;;;2.60;;
31424;SDS011;18054;51.572;7.372;2024-02-26T05:49:06;13.75;;;2.30;;
31424;SDS011;18054;51.572;7.372;2024-02-26T05:51:35;4.40;;;2.15;;
31424;SDS011;18054;51.572;7.372;2024-02-26T05:54:03;6.15;;;2.53;;
31424;SDS011;18054;51.572;7.372;2024-02-26T05:56:30;5.65;;;2.65;;
31424;SDS011;18054;51.572;7.372;2024-02-26T05:58:58;4.40;;;2.13;;
31424;SDS011;18054;51.572;7.372;2024-02-26T06:01:25;4.40;;;2.05;;
31424;SDS011;18054;51.572;7.372;2024-02-26T06:03:53;5.18;;;2.55;;
31424;SDS011;18054;51.572;7.372;2024-02-26T06:06:20;6.10;;;2.65;;
31424;SDS011;18054;51.572;7.372;2024-02-26T06:08:51;10.35;;;3.70;;
31424;SDS011;18054;51.572;7.372;2024-02-26T06:11:18;8.73;;;3.05;;
31424;SDS011;18054;51.572;7.372;2024-02-26T06:13:46;5.57;;;2.83;;
31424;SDS011;18054;51.572;7.372;2024-02-26T06:16:13;19.10;;;6.72;;
31424;SDS011;18054;51.572;7.372;2024-02-26T06:18:41;21.38;;;5.20;;
31424;SDS011;18054;51.572;7.372;2024-02-26T06:21:09;8.45;;;3.35;;
31424;SDS011;18054;51.572;7.372;2024-02-26T06:23:36;7.57;;;2.70;;
31424;SDS011;18054;51.572;7.372;2024-02-26T06:26:05;9.80;;;2.97;;
31424;SDS011;18054;51.572;7.372;2024-02-26T06:28:32;6.57;;;3.20;;
31424;SDS011;18054;51.572;7.372;2024-02-26T06:31:02;11.32;;;3.33;;
31424;SDS011;18054;51.572;7.372;2024-02-26T06:33:29;9.35;;;3.88;;
31424;SDS011;18054;51.572;7.372;2024-02-26T06:38:24;7.95;;;2.58;;
31424;SDS011;18054;51.572;7.372;2024-02-26T06:40:52;5.18;;;2.65;;
31424;SDS011;18054;51.572;7.372;2024-02-26T06:43:21;7.75;;;3.03;;
31424;SDS011;18054;51.572;7.372;2024-02-26T06:45:49;14.52;;;5.80;;
31424;SDS011;18054;51.572;7.372;2024-02-26T06:48:16;5.88;;;3.08;;
31424;SDS011;18054;51.572;7.372;2024-02-26T06:50:44;10.30;;;2.90;;
31424;SDS011;18054;51.572;7.372;2024-02-26T06:53:12;6.07;;;3.20;;
31424;SDS011;18054;51.572;7.372;2024-02-26T06:55:39;9.48;;;3.30;;
31424;SDS011;18054;51.572;7.372;2024-02-26T06:58:07;7.93;;;3.78;;
31424;SDS011;18054;51.572;7.372;2024-02-26T07:00:35;6.70;;;2.90;;
31424;SDS011;18054;51.572;7.372;2024-02-26T07:03:03;7.70;;;3.53;;
31424;SDS011;18054;51.572;7.372;2024-02-26T07:07:58;11.75;;;3.17;;
31424;SDS011;18054;51.572;7.372;2024-02-26T07:10:26;8.13;;;3.00;;
31424;SDS011;18054;51.572;7.372;2024-02-26T07:12:53;9.75;;;2.88;;
31424;SDS011;18054;51.572;7.372;2024-02-26T07:15:21;15.88;;;3.60;;
31424;SDS011;18054;51.572;7.372;2024-02-26T07:17:49;8.68;;;2.92;;
31424;SDS011;18054;51.572;7.372;2024-02-26T07:20:17;6.25;;;3.20;;
31424;SDS011;18054;51.572;7.372;2024-02-26T07:22:45;5.88;;;2.65;;
31424;SDS011;18054;51.572;7.372;2024-02-26T07:25:12;10.25;;;2.70;;
31424;SDS011;18054;51.572;7.372;2024-02-26T07:27:40;7.68;;;3.50;;
31424;SDS011;18054;51.572;7.372;2024-02-26T07:30:08;4.95;;;2.72;;
31424;SDS011;18054;51.572;7.372;2024-02-26T07:32:36;6.93;;;3.20;;
31424;SDS011;18054;51.572;7.372;2024-02-26T07:35:06;8.40;;;3.70;;
31424;SDS011;18054;51.572;7.372;2024-02-26T07:37:33;8.57;;;3.17;;
31424;SDS011;18054;51.572;7.372;2024-02-26T07:40:01;9.20;;;3.90;;
31424;SDS011;18054;51.572;7.372;2024-02-26T07:42:29;7.35;;;3.22;;
31424;SDS011;18054;51.572;7.372;2024-02-26T07:47:24;8.80;;;3.22;;
31424;SDS011;18054;51.572;7.372;2024-02-26T07:49:52;9.00;;;3.20;;
31424;SDS011;18054;51.572;7.372;2024-02-26T07:52:21;10.65;;;4.18;;
31424;SDS011;18054;51.572;7.372;2024-02-26T07:54:49;7.38;;;3.42;;
31424;SDS011;18054;51.572;7.372;2024-02-26T07:57:16;8.35;;;3.67;;
31424;SDS011;18054;51.572;7.372;2024-02-26T07:59:44;10.18;;;3.25;;
31424;SDS011;18054;51.572;7.372;2024-02-26T08:02:16;7.00;;;3.20;;
31424;SDS011;18054;51.572;7.372;2024-02-26T08:04:43;6.57;;;3.13;;
31424;SDS011;18054;51.572;7.372;2024-02-26T08:07:11;8.48;;;3.33;;
31424;SDS011;18054;51.572;7.372;2024-02-26T08:12:07;8.32;;;3.60;;
31424;SDS011;18054;51.572;7.372;2024-02-26T08:14:35;5.75;;;3.20;;
31424;SDS011;18054;51.572;7.372;2024-02-26T08:17:02;8.23;;;3.58;;
31424;SDS011;18054;51.572;7.372;2024-02-26T08:19:30;6.50;;;3.28;;
31424;SDS011;18054;51.572;7.372;2024-02-26T08:21:57;8.60;;;4.45;;
31424;SDS011;18054;51.572;7.372;2024-02-26T08:24:28;9.20;;;4.53;;
31424;SDS011;18054;51.572;7.372;2024-02-26T08:26:56;8.23;;;4.68;;
31424;SDS011;18054;51.572;7.372;2024-02-26T08:29:25;10.23;;;3.67;;
31424;SDS011;18054;51.572;7.372;2024-02-26T08:31:53;14.10;;;3.92;;
31424;SDS011;18054;51.572;7.372;2024-02-26T08:34:20;7.85;;;3.25;;
31424;SDS011;18054;51.572;7.372;2024-02-26T08:36:48;11.23;;;3.65;;
31424;SDS011;18054;51.572;7.372;2024-02-26T08:39:17;9.23;;;3.65;;
31424;SDS011;18054;51.572;7.372;2024-02-26T08:41:44;8.38;;;3.92;;
31424;SDS011;18054;51.572;7.372;2024-02-26T08:44:12;7.75;;;3.17;;
31424;SDS011;18054;51.572;7.372;2024-02-26T08:46:40;7.47;;;3.25;;
31424;SDS011;18054;51.572;7.372;2024-02-26T08:49:08;7.28;;;3.15;;
31424;SDS011;18054;51.572;7.372;2024-02-26T08:51:40;6.82;;;3.20;;
31424;SDS011;18054;51.572;7.372;2024-02-26T08:54:08;13.43;;;6.85;;
31424;SDS011;18054;51.572;7.372;2024-02-26T08:56:35;19.05;;;7.03;;
31424;SDS011;18054;51.572;7.372;2024-02-26T08:59:03;9.52;;;3.50;;
31424;SDS011;18054;51.572;7.372;2024-02-26T09:01:31;7.03;;;3.60;;
31424;SDS011;18054;51.572;7.372;2024-02-26T09:06:27;10.82;;;3.25;;
31424;SDS011;18054;51.572;7.372;2024-02-26T09:08:55;7.03;;;2.95;;
31424;SDS011;18054;51.572;7.372;2024-02-26T09:11:27;8.60;;;3.40;;
31424;SDS011;18054;51.572;7.372;2024-02-26T09:13:55;7.63;;;3.60;;
31424;SDS011;18054;51.572;7.372;2024-02-26T09:16:22;6.97;;;3.45;;
31424;SDS011;18054;51.572;7.372;2024-02-26T09:18:49;8.57;;;3.42;;
31424;SDS011;18054;51.572;7.372;2024-02-26T09:21:17;6.78;;;4.13;;
31424;SDS011;18054;51.572;7.372;2024-02-26T09:23:50;7.00;;;3.55;;
31424;SDS011;18054;51.572;7.372;2024-02-26T09:26:18;6.60;;;3.13;;
31424;SDS011;18054;51.572;7.372;2024-02-26T09:28:45;8.23;;;3.67;;
31424;SDS011;18054;51.572;7.372;2024-02-26T09:31:13;8.63;;;3.60;;
31424;SDS011;18054;51.572;7.372;2024-02-26T09:33:42;7.82;;;3.83;;
31424;SDS011;18054;51.572;7.372;2024-02-26T09:36:10;7.22;;;3.63;;
31424;SDS011;18054;51.572;7.372;2024-02-26T09:38:37;6.05;;;3.42;;
31424;SDS011;18054;51.572;7.372;2024-02-26T09:41:23;9.00;;;3.00;;
31424;SDS011;18054;51.572;7.372;2024-02-26T09:43:50;10.05;;;3.50;;
31424;SDS011;18054;51.572;7.372;2024-02-26T09:46:21;9.40;;;3.80;;
31424;SDS011;18054;51.572;7.372;2024-02-26T09:48:48;9.50;;;3.13;;
31424;SDS011;18054;51.572;7.372;2024-02-26T09:51:16;5.28;;;3.28;;
31424;SDS011;18054;51.572;7.372;2024-02-26T09:53:44;8.15;;;3.78;;
31424;SDS011;18054;51.572;7.372;2024-02-26T09:58:40;9.93;;;4.03;;
31424;SDS011;18054;51.572;7.372;2024-02-26T10:01:10;10.25;;;5.35;;
31424;SDS011;18054;51.572;7.372;2024-02-26T10:03:38;11.52;;;4.45;;
31424;SDS011;18054;51.572;7.372;2024-02-26T10:06:07;10.85;;;4.20;;
31424;SDS011;18054;51.572;7.372;2024-02-26T10:08:35;8.00;;;3.83;;
31424;SDS011;18054;51.572;7.372;2024-02-26T10:11:03;8.02;;;4.05;;
31424;SDS011;18054;51.572;7.372;2024-02-26T10:13:31;9.55;;;3.63;;
31424;SDS011;18054;51.572;7.372;2024-02-26T10:16:00;7.72;;;3.97;;
31424;SDS011;18054;51.572;7.372;2024-02-26T10:18:44;8.85;;;3.75;;
31424;SDS011;18054;51.572;7.372;2024-02-26T10:21:24;7.70;;;3.80;;
31424;SDS011;18054;51.572;7.372;2024-02-26T10:23:52;7.97;;;3.83;;
31424;SDS011;18054;51.572;7.372;2024-02-26T10:26:21;7.80;;;3.95;;
31424;SDS011;18054;51.572;7.372;2024-02-26T10:28:48;5.93;;;3.22;;
31424;SDS011;18054;51.572;7.372;2024-02-26T10:31:22;8.32;;;4.03;;
31424;SDS011;18054;51.572;7.372;2024-02-26T10:33:49;6.60;;;3.38;;
31424;SDS011;18054;51.572;7.372;2024-02-26T10:38:44;8.80;;;3.38;;
31424;SDS011;18054;51.572;7.372;2024-02-26T10:41:13;5.18;;;2.97;;
31424;SDS011;18054;51.572;7.372;2024-02-26T10:43:41;5.38;;;2.83;;
31424;SDS011;18054;51.572;7.372;2024-02-26T10:46:09;5.60;;;2.88;;
31424;SDS011;18054;51.572;7.372;2024-02-26T10:48:38;13.23;;;3.72;;
31424;SDS011;18054;51.572;7.372;2024-02-26T10:51:06;10.25;;;3.30;;
31424;SDS011;18054;51.572;7.372;2024-02-26T10:53:36;10.77;;;3.80;;
31424;SDS011;18054;51.572;7.372;2024-02-26T10:58:32;5.75;;;3.17;;
31424;SDS011;18054;51.572;7.372;2024-02-26T11:00:59;8.60;;;3.95;;
31424;SDS011;18054;51.572;7.372;2024-02-26T11:03:27;8.57;;;3.55;;
31424;SDS011;18054;51.572;7.372;2024-02-26T11:05:59;10.43;;;4.10;;
31424;SDS011;18054;51.572;7.372;2024-02-26T11:08:28;10.15;;;3.80;;
31424;SDS011;18054;51.572;7.372;2024-02-26T11:10:57;7.47;;;3.88;;
31424;SDS011;18054;51.572;7.372;2024-02-26T11:13:26;7.00;;;3.35;;
31424;SDS011;18054;51.572;7.372;2024-02-26T11:15:56;11.65;;;4.07;;
31424;SDS011;18054;51.572;7.372;2024-02-26T11:18:24;8.63;;;3.97;;
31424;SDS011;18054;51.572;7.372;2024-02-26T11:20:54;10.68;;;4.45;;
31424;SDS011;18054;51.572;7.372;2024-02-26T11:23:25;8.05;;;4.18;;
31424;SDS011;18054;51.572;7.372;2024-02-26T11:25:53;9.85;;;4.47;;
31424;SDS011;18054;51.572;7.372;2024-02-26T11:28:21;10.02;;;4.75;;
31424;SDS011;18054;51.572;7.372;2024-02-26T11:30:49;9.55;;;5.03;;
31424;SDS011;18054;51.572;7.372;2024-02-26T11:33:19;11.30;;;5.28;;
31424;SDS011;18054;51.572;7.372;2024-02-26T11:35:47;10.88;;;5.50;;
31424;SDS011;18054;51.572;7.372;2024-02-26T11:38:19;8.65;;;5.40;;
31424;SDS011;18054;51.572;7.372;2024-02-26T11:40:49;10.90;;;6.05;;
31424;SDS011;18054;51.572;7.372;2024-02-26T11:43:17;12.18;;;5.90;;
31424;SDS011;18054;51.572;7.372;2024-02-26T11:45:48;15.55;;;6.25;;
31424;SDS011;18054;51.572;7.372;2024-02-26T11:48:20;16.17;;;6.88;;
31424;SDS011;18054;51.572;7.372;2024-02-26T11:50:48;11.13;;;6.03;;
31424;SDS011;18054;51.572;7.372;2024-02-26T11:53:24;15.05;;;7.28;;
31424;SDS011;18054;51.572;7.372;2024-02-26T11:58:40;15.38;;;7.00;;
31424;SDS011;18054;51.572;7.372;2024-02-26T12:03:50;10.90;;;6.68;;
31424;SDS011;18054;51.572;7.372;2024-02-26T12:06:18;19.50;;;6.82;;
31424;SDS011;18054;51.572;7.372;2024-02-26T12:08:45;13.07;;;6.95;;
31424;SDS011;18054;51.572;7.372;2024-02-26T12:11:14;11.52;;;6.18;;
31424;SDS011;18054;51.572;7.372;2024-02-26T12:13:45;10.93;;;6.20;;
31424;SDS011;18054;51.572;7.372;2024-02-26T12:18:58;13.18;;;7.93;;
31424;SDS011;18054;51.572;7.372;2024-02-26T12:21:26;11.13;;;5.78;;
31424;SDS011;18054;51.572;7.372;2024-02-26T12:23:54;12.68;;;6.47;;
31424;SDS011;18054;51.572;7.372;2024-02-26T12:26:21;9.73;;;5.82;;
31424;SDS011;18054;51.572;7.372;2024-02-26T12:28:50;9.68;;;5.65;;
31424;SDS011;18054;51.572;7.372;2024-02-26T12:31:18;10.18;;;6.35;;
31424;SDS011;18054;51.572;7.372;2024-02-26T12:33:45;13.90;;;6.57;;
31424;SDS011;18054;51.572;7.372;2024-02-26T12:36:13;10.48;;;6.57;;
31424;SDS011;18054;51.572;7.372;2024-02-26T12:38:41;10.50;;;5.90;;
31424;SDS011;18054;51.572;7.372;2024-02-26T12:41:08;14.02;;;6.45;;
31424;SDS011;18054;51.572;7.372;2024-02-26T12:43:36;15.60;;;6.60;;
31424;SDS011;18054;51.572;7.372;2024-02-26T12:46:05;11.98;;;5.72;;
31424;SDS011;18054;51.572;7.372;2024-02-26T12:48:32;17.92;;;7.45;;
31424;SDS011;18054;51.572;7.372;2024-02-26T12:53:28;11.25;;;5.20;;
31424;SDS011;18054;51.572;7.372;2024-02-26T12:55:55;9.23;;;5.60;;
31424;SDS011;18054;51.572;7.372;2024-02-26T12:58:23;10.63;;;5.63;;
31424;SDS011;18054;51.572;7.372;2024-02-26T13:03:19;9.60;;;5.32;;
31424;SDS011;18054;51.572;7.372;2024-02-26T13:05:47;9.15;;;5.28;;
31424;SDS011;18054;51.572;7.372;2024-02-26T13:10:42;14.77;;;5.47;;
31424;SDS011;18054;51.572;7.372;2024-02-26T13:13:10;10.88;;;5.70;;
31424;SDS011;18054;51.572;7.372;2024-02-26T13:15:37;12.52;;;5.45;;
31424;SDS011;18054;51.572;7.372;2024-02-26T13:18:08;9.27;;;5.20;;
31424;SDS011;18054;51.572;7.372;2024-02-26T13:20:37;7.72;;;4.50;;
31424;SDS011;18054;51.572;7.372;2024-02-26T13:23:06;11.38;;;5.35;;
31424;SDS011;18054;51.572;7.372;2024-02-26T13:28:08;10.73;;;4.13;;
31424;SDS011;18054;51.572;7.372;2024-02-26T13:30:36;9.50;;;4.72;;
31424;SDS011;18054;51.572;7.372;2024-02-26T13:33:07;9.27;;;4.70;;
31424;SDS011;18054;51.572;7.372;2024-02-26T13:35:34;7.40;;;4.50;;
31424;SDS011;18054;51.572;7.372;2024-02-26T13:38:04;11.48;;;5.30;;
31424;SDS011;18054;51.572;7.372;2024-02-26T13:40:32;7.45;;;4.30;;
31424;SDS011;18054;51.572;7.372;2024-02-26T13:43:00;9.07;;;4.30;;
31424;SDS011;18054;51.572;7.372;2024-02-26T13:45:27;9.70;;;4.95;;
31424;SDS011;18054;51.572;7.372;2024-02-26T13:48:03;9.00;;;4.55;;
31424;SDS011;18054;51.572;7.372;2024-02-26T13:50:31;12.25;;;5.00;;
31424;SDS011;18054;51.572;7.372;2024-02-26T13:52:59;11.48;;;5.20;;
31424;SDS011;18054;51.572;7.372;2024-02-26T13:55:28;6.80;;;4.05;;
31424;SDS011;18054;51.572;7.372;2024-02-26T13:57:57;8.10;;;4.60;;
31424;SDS011;18054;51.572;7.372;2024-02-26T14:00:25;13.45;;;4.53;;
31424;SDS011;18054;51.572;7.372;2024-02-26T14:02:52;7.55;;;4.38;;
31424;SDS011;18054;51.572;7.372;2024-02-26T14:05:20;11.60;;;4.85;;
31424;SDS011;18054;51.572;7.372;2024-02-26T14:07:47;6.03;;;3.88;;
31424;SDS011;18054;51.572;7.372;2024-02-26T14:10:18;8.60;;;4.43;;
31424;SDS011;18054;51.572;7.372;2024-02-26T14:12:47;13.57;;;5.82;;
31424;SDS011;18054;51.572;7.372;2024-02-26T14:15:15;10.60;;;4.78;;
31424;SDS011;18054;51.572;7.372;2024-02-26T14:17:42;10.55;;;4.32;;
31424;SDS011;18054;51.572;7.372;2024-02-26T14:20:11;8.75;;;4.18;;
31424;SDS011;18054;51.572;7.372;2024-02-26T14:22:38;10.73;;;4.45;;
31424;SDS011;18054;51.572;7.372;2024-02-26T14:25:06;8.18;;;4.40;;
31424;SDS011;18054;51.572;7.372;2024-02-26T14:27:35;6.80;;;3.67;;
31424;SDS011;18054;51.572;7.372;2024-02-26T14:30:05;9.63;;;4.35;;
31424;SDS011;18054;51.572;7.372;2024-02-26T14:32:33;8.52;;;4.95;;
31424;SDS011;18054;51.572;7.372;2024-02-26T14:35:04;8.85;;;4.32;;
31424;SDS011;18054;51.572;7.372;2024-02-26T14:37:33;7.40;;;3.97;;
31424;SDS011;18054;51.572;7.372;2024-02-26T14:40:00;5.85;;;3.60;;
31424;SDS011;18054;51.572;7.372;2024-02-26T14:42:28;7.72;;;3.97;;
31424;SDS011;18054;51.572;7.372;2024-02-26T14:44:58;8.77;;;3.65;;
31424;SDS011;18054;51.572;7.372;2024-02-26T14:47:27;8.48;;;3.90;;
31424;SDS011;18054;51.572;7.372;2024-02-26T14:49:55;6.18;;;3.17;;
31424;SDS011;18054;51.572;7.372;2024-02-26T14:52:22;6.45;;;3.08;;
31424;SDS011;18054;51.572;7.372;2024-02-26T14:54:50;7.78;;;3.45;;
31424;SDS011;18054;51.572;7.372;2024-02-26T14:57:18;6.13;;;2.95;;
31424;SDS011;18054;51.572;7.372;2024-02-26T15:02:14;5.25;;;2.58;;
31424;SDS011;18054;51.572;7.372;2024-02-26T15:04:44;5.30;;;2.42;;
31424;SDS011;18054;51.572;7.372;2024-02-26T15:07:11;6.45;;;2.75;;
31424;SDS011;18054;51.572;7.372;2024-02-26T15:09:42;4.82;;;2.58;;
31424;SDS011;18054;51.572;7.372;2024-02-26T15:12:10;5.65;;;2.80;;
31424;SDS011;18054;51.572;7.372;2024-02-26T15:14:37;6.63;;;3.38;;
31424;SDS011;18054;51.572;7.372;2024-02-26T15:17:05;8.07;;;3.08;;
31424;SDS011;18054;51.572;7.372;2024-02-26T15:19:36;6.80;;;2.95;;
31424;SDS011;18054;51.572;7.372;2024-02-26T15:27:01;6.55;;;2.85;;
31424;SDS011;18054;51.572;7.372;2024-02-26T15:29:29;8.57;;;2.50;;
31424;SDS011;18054;51.572;7.372;2024-02-26T15:31:57;6.00;;;2.97;;
31424;SDS011;18054;51.572;7.372;2024-02-26T15:34:24;6.32;;;2.75;;
31424;SDS011;18054;51.572;7.372;2024-02-26T15:36:52;4.53;;;2.50;;
31424;SDS011;18054;51.572;7.372;2024-02-26T15:39:19;5.25;;;2.17;;
31424;SDS011;18054;51.572;7.372;2024-02-26T15:41:47;4.50;;;2.38;;
31424;SDS011;18054;51.572;7.372;2024-02-26T15:44:16;4.45;;;2.38;;
31424;SDS011;18054;51.572;7.372;2024-02-26T15:46:43;10.13;;;2.20;;
31424;SDS011;18054;51.572;7.372;2024-02-26T15:49:11;7.53;;;2.90;;
31424;SDS011;18054;51.572;7.372;2024-02-26T15:51:41;4.25;;;2.00;;
31424;SDS011;18054;51.572;7.372;2024-02-26T15:56:37;5.18;;;2.22;;
31424;SDS011;18054;51.572;7.372;2024-02-26T16:01:33;5.93;;;2.75;;
31424;SDS011;18054;51.572;7.372;2024-02-26T16:04:01;16.48;;;3.60;;